Time;durP1;ratioP1;P1;durP2;ratioP2;P2;SDS_P1;SDS_P2;PMS_P1;PMS_P2;Temp;Humidity;BMP_temperature;BMP_pressure;BME280_temperature;BME280_humidity;BME280_pressure;Samples;Min_cycle;Max_cycle;Signal;HPM_P1;HPM_P2
2023/01/21 00:02:04;;;;;;;37.25;26.05;;;;;;;1.00;100.00;102565.38;4997301;28;20223;-42
2023/01/21 00:04:29;;;;;;;46.28;28.50;;;;;;;0.96;100.00;102564.41;4998249;28;20180;-40
2023/01/21 00:06:56;;;;;;;40.25;26.02;;;;;;;0.99;100.00;102564.50;5003252;28;20205;-44
2023/01/21 00:09:21;;;;;;;41.50;26.50;;;;;;;0.99;100.00;102572.41;4998255;28;20176;-41
2023/01/21 00:11:46;;;;;;;37.17;25.40;;;;;;;1.00;100.00;102571.53;4999183;28;20177;-43
2023/01/21 00:14:12;;;;;;;38.35;26.15;;;;;;;1.01;100.00;102575.09;4993289;28;20189;-42
2023/01/21 00:16:37;;;;;;;37.58;25.10;;;;;;;0.97;100.00;102575.84;4996885;28;20292;-43
2023/01/21 00:19:03;;;;;;;42.38;27.45;;;;;;;0.88;100.00;102576.47;5001528;28;20288;-42
2023/01/21 00:21:28;;;;;;;44.42;27.08;;;;;;;0.86;100.00;102572.00;4998353;28;20181;-42
2023/01/21 00:23:54;;;;;;;35.67;23.80;;;;;;;0.94;100.00;102584.59;4997845;28;20721;-42
2023/01/21 00:26:19;;;;;;;41.30;26.98;;;;;;;0.87;100.00;102579.94;5001292;28;20215;-42
2023/01/21 00:28:46;;;;;;;39.20;25.60;;;;;;;0.92;100.00;102586.28;4989429;28;20664;-42
2023/01/21 00:31:11;;;;;;;37.63;24.40;;;;;;;0.97;100.00;102586.41;4999909;28;20185;-42
2023/01/21 00:33:37;;;;;;;40.92;27.40;;;;;;;0.88;100.00;102594.06;5000718;28;20192;-42
2023/01/21 00:36:08;;;;;;;37.35;25.00;;;;;;;0.94;100.00;102591.59;4999079;28;20573;-44
2023/01/21 00:38:34;;;;;;;35.30;25.00;;;;;;;0.91;100.00;102596.78;4996264;28;20242;-43
2023/01/21 00:41:08;;;;;;;36.10;24.58;;;;;;;0.93;100.00;102610.91;4994521;28;20181;-43
2023/01/21 00:43:34;;;;;;;39.38;25.08;;;;;;;0.94;100.00;102599.50;5004374;28;20200;-41
2023/01/21 00:46:00;;;;;;;39.83;25.55;;;;;;;0.89;100.00;102612.56;5001507;28;20197;-43
2023/01/21 00:48:27;;;;;;;34.65;25.05;;;;;;;0.85;100.00;102623.88;5003601;28;20192;-42
2023/01/21 00:50:54;;;;;;;36.67;24.98;;;;;;;0.88;100.00;102621.34;5001404;28;20235;-43
2023/01/21 00:53:22;;;;;;;36.28;23.60;;;;;;;0.91;100.00;102620.53;4997259;28;20177;-42
2023/01/21 00:55:48;;;;;;;33.33;23.15;;;;;;;0.87;100.00;102626.56;5003469;28;20207;-43
2023/01/21 00:58:13;;;;;;;35.22;23.02;;;;;;;0.86;100.00;102636.22;4998771;28;20181;-42
2023/01/21 01:00:39;;;;;;;32.90;23.35;;;;;;;0.92;100.00;102636.41;4998510;28;20180;-42
2023/01/21 01:03:04;;;;;;;30.98;21.58;;;;;;;0.96;100.00;102650.59;4998291;28;20188;-45
2023/01/21 01:05:30;;;;;;;30.42;21.17;;;;;;;0.96;100.00;102647.94;5001423;28;20189;-43
2023/01/21 01:07:55;;;;;;;29.88;21.55;;;;;;;0.97;100.00;102655.91;5000752;28;20177;-45
2023/01/21 01:10:21;;;;;;;31.15;21.90;;;;;;;0.93;100.00;102653.13;5003624;28;20192;-44
2023/01/21 01:12:47;;;;;;;28.80;20.25;;;;;;;0.94;100.00;102660.19;5008599;28;20176;-42
2023/01/21 01:15:12;;;;;;;29.15;19.60;;;;;;;0.82;100.00;102656.34;4999724;28;20287;-42
2023/01/21 01:17:37;;;;;;;30.58;21.25;;;;;;;0.81;100.00;102662.47;4999851;28;20236;-45
2023/01/21 01:20:03;;;;;;;28.02;19.88;;;;;;;0.79;100.00;102677.34;4998530;28;20268;-43
2023/01/21 01:22:29;;;;;;;27.13;19.40;;;;;;;0.78;100.00;102665.00;4991254;28;20181;-43
2023/01/21 01:24:54;;;;;;;24.38;18.02;;;;;;;0.84;100.00;102676.63;4997966;28;20648;-43
2023/01/21 01:27:20;;;;;;;25.77;19.10;;;;;;;0.77;100.00;102680.81;4999679;28;20216;-44
2023/01/21 01:29:47;;;;;;;23.50;17.48;;;;;;;0.77;100.00;102679.06;4996684;28;20275;-42
2023/01/21 01:32:12;;;;;;;22.52;17.02;;;;;;;0.79;100.00;102685.28;4998825;28;20349;-43
2023/01/21 01:34:38;;;;;;;24.23;17.85;;;;;;;0.79;100.00;102694.94;4996503;28;20685;-44
2023/01/21 01:37:03;;;;;;;21.85;17.00;;;;;;;0.79;100.00;102692.31;4998319;28;20767;-41
2023/01/21 01:39:30;;;;;;;21.98;16.50;;;;;;;0.82;100.00;102697.66;4998099;28;20191;-43
2023/01/21 01:41:56;;;;;;;20.83;16.25;;;;;;;0.84;100.00;102695.09;5003013;28;20278;-43
2023/01/21 01:44:54;;;;;;;25.77;18.75;;;;;;;0.76;100.00;102698.34;4999969;28;20184;-44
2023/01/21 01:47:24;;;;;;;21.20;16.40;;;;;;;0.76;100.00;102695.72;5006262;28;20209;-43
2023/01/21 01:49:51;;;;;;;25.08;18.63;;;;;;;0.68;100.00;102704.22;4999204;28;20208;-43
2023/01/21 01:52:18;;;;;;;24.38;18.45;;;;;;;0.69;100.00;102706.91;4999391;28;20242;-44
2023/01/21 01:54:49;;;;;;;23.45;18.08;;;;;;;0.71;100.00;102705.22;5005581;28;20672;-43
2023/01/21 01:57:18;;;;;;;21.88;16.75;;;;;;;0.79;100.00;102703.75;4999327;28;20690;-42
2023/01/21 01:59:44;;;;;;;25.08;17.95;;;;;;;0.69;100.00;102720.09;5003874;28;20190;-43
2023/01/21 02:02:13;;;;;;;26.58;20.02;;;;;;;0.69;100.00;102720.09;5004661;28;20185;-41
2023/01/21 02:04:44;;;;;;;25.10;18.75;;;;;;;0.68;100.00;102717.41;5004159;28;20180;-43
2023/01/21 02:07:10;;;;;;;23.75;17.98;;;;;;;0.67;100.00;102713.88;5001550;28;20427;-46
2023/01/21 02:09:36;;;;;;;23.40;18.13;;;;;;;0.65;100.00;102722.59;4999195;28;20227;-44
2023/01/21 02:12:04;;;;;;;23.00;17.70;;;;;;;0.69;100.00;102724.50;5001903;28;20663;-49
2023/01/21 02:14:31;;;;;;;24.45;18.70;;;;;;;0.65;100.00;102731.41;5000836;28;20635;-44
2023/01/21 02:17:26;;;;;;;25.15;18.77;;;;;;;0.63;100.00;102733.09;5003975;28;20238;-49
2023/01/21 02:20:13;;;;;;;22.75;17.63;;;;;;;0.69;100.00;102720.09;4986438;28;20193;-44
2023/01/21 02:22:47;;;;;;;22.75;16.92;;;;;;;0.65;100.00;102720.84;5004878;28;20193;-45
2023/01/21 02:25:15;;;;;;;23.20;17.73;;;;;;;0.64;100.00;102729.63;5002806;28;20295;-45
2023/01/21 02:27:52;;;;;;;24.77;17.60;;;;;;;0.59;100.00;102734.75;5007356;28;20188;-46
2023/01/21 02:30:47;;;;;;;22.50;17.85;;;;;;;0.56;100.00;102737.25;4999536;28;20164;-48
2023/01/21 02:33:37;;;;;;;21.40;16.90;;;;;;;0.63;100.00;102742.75;4981570;28;20212;-45
2023/01/21 02:36:29;;;;;;;20.80;16.20;;;;;;;0.55;100.00;102745.16;5003685;28;20303;-47
2023/01/21 02:39:08;;;;;;;22.45;17.65;;;;;;;0.54;100.00;102749.50;4997655;28;20186;-45
2023/01/21 02:42:02;;;;;;;20.65;15.25;;;;;;;0.52;100.00;102756.47;4998862;28;20193;-46
2023/01/21 02:44:59;;;;;;;20.67;15.60;;;;;;;0.48;100.00;102757.22;5000464;28;20181;-45
2023/01/21 02:47:37;;;;;;;20.20;16.50;;;;;;;0.37;100.00;102753.28;4997767;28;20232;-45
2023/01/21 02:50:05;;;;;;;22.10;16.17;;;;;;;0.36;100.00;102757.69;4997521;28;20193;-49
2023/01/21 02:52:31;;;;;;;19.23;15.45;;;;;;;0.39;100.00;102749.91;4997444;28;20185;-45
2023/01/21 02:54:59;;;;;;;21.75;16.83;;;;;;;0.22;100.00;102769.50;5004939;28;20207;-51
2023/01/21 02:57:37;;;;;;;19.75;16.75;;;;;;;0.29;100.00;102753.03;5003438;28;20307;-50
2023/01/21 03:00:11;;;;;;;19.98;15.65;;;;;;;0.44;100.00;102762.31;5001831;28;20219;-51
2023/01/21 03:02:49;;;;;;;18.60;15.38;;;;;;;0.44;100.00;102778.13;5000945;28;20184;-46
2023/01/21 03:05:17;;;;;;;17.67;14.48;;;;;;;0.38;100.00;102769.19;5002888;28;20208;-50
2023/01/21 03:08:24;;;;;;;15.75;13.90;;;;;;;0.33;100.00;102764.59;5004636;28;20195;-46
2023/01/21 03:11:13;;;;;;;17.92;13.88;;;;;;;0.38;100.00;102771.81;4997544;28;20718;-43
2023/01/21 03:17:16;;;;;;;18.60;14.10;;;;;;;0.36;100.00;102778.78;4990047;28;20225;-43
2023/01/21 03:19:49;;;;;;;18.58;14.88;;;;;;;0.26;100.00;102779.28;5001762;28;20177;-46
2023/01/21 03:22:21;;;;;;;16.73;13.80;;;;;;;0.38;100.00;102770.94;5004223;28;20197;-45
2023/01/21 03:24:50;;;;;;;18.92;15.20;;;;;;;0.37;100.00;102787.56;4998533;28;20176;-45
2023/01/21 03:27:20;;;;;;;19.02;14.70;;;;;;;0.38;100.00;102797.28;5002698;28;20255;-45
2023/01/21 03:29:49;;;;;;;15.90;13.25;;;;;;;0.43;100.00;102789.53;5003016;28;20193;-45
2023/01/21 03:32:19;;;;;;;18.77;15.63;;;;;;;0.41;100.00;102790.38;4997530;28;20200;-44
2023/01/21 03:34:50;;;;;;;18.27;15.55;;;;;;;0.36;100.00;102796.34;4997333;28;20222;-44
2023/01/21 03:37:42;;;;;;;18.30;15.45;;;;;;;0.40;100.00;102804.41;5002467;28;20606;-44
2023/01/21 03:40:20;;;;;;;21.52;16.95;;;;;;;0.30;100.00;102797.00;4997668;28;20221;-46
2023/01/21 03:42:49;;;;;;;18.65;16.10;;;;;;;0.32;100.00;102791.81;4998392;28;20181;-43
2023/01/21 03:45:17;;;;;;;20.70;15.35;;;;;;;0.32;100.00;102797.06;4996584;28;20275;-45
2023/01/21 03:47:51;;;;;;;20.02;15.90;;;;;;;0.34;100.00;102798.03;5002872;28;20187;-45
2023/01/21 03:50:24;;;;;;;18.75;15.48;;;;;;;0.38;100.00;102807.84;4999969;28;20648;-51
2023/01/21 03:52:50;;;;;;;19.90;16.02;;;;;;;0.17;100.00;102815.88;4996871;28;20441;-44
2023/01/21 03:55:16;;;;;;;19.23;15.80;;;;;;;0.16;100.00;102820.25;5001153;28;20706;-44
2023/01/21 03:57:42;;;;;;;19.15;15.90;;;;;;;0.19;100.00;102809.81;5005142;28;20193;-45
2023/01/21 04:00:08;;;;;;;18.70;15.60;;;;;;;0.30;100.00;102814.56;5000579;28;20221;-44
2023/01/21 04:02:33;;;;;;;16.17;14.07;;;;;;;0.33;100.00;102817.34;5000151;28;20799;-45
2023/01/21 04:04:59;;;;;;;19.58;16.30;;;;;;;0.32;100.00;102821.69;4999543;28;20282;-46
2023/01/21 04:07:25;;;;;;;17.52;14.27;;;;;;;0.38;100.00;102821.03;4998217;28;20233;-44
2023/01/21 04:09:50;;;;;;;18.02;14.90;;;;;;;0.36;100.00;102830.63;5011901;28;20176;-42
2023/01/21 04:12:16;;;;;;;17.38;15.10;;;;;;;0.38;100.00;102832.47;5002454;28;20185;-44
2023/01/21 04:14:41;;;;;;;17.35;14.02;;;;;;;0.39;100.00;102831.63;4999890;28;20196;-48
2023/01/21 04:17:07;;;;;;;18.02;15.43;;;;;;;0.20;100.00;102837.97;4999319;28;20235;-45
2023/01/21 04:19:32;;;;;;;15.73;13.85;;;;;;;0.33;100.00;102839.31;4996068;28;20247;-44
2023/01/21 04:21:58;;;;;;;18.10;15.52;;;;;;;0.24;100.00;102833.72;4995593;28;20200;-45
2023/01/21 04:24:24;;;;;;;16.38;14.43;;;;;;;0.09;100.00;102841.03;5004151;28;20184;-51
2023/01/21 04:26:49;;;;;;;17.52;14.20;;;;;;;0.16;100.00;102841.34;4991195;28;20224;-44
2023/01/21 04:29:16;;;;;;;16.77;14.90;;;;;;;0.06;100.00;102843.56;4997054;28;20191;-44
2023/01/21 04:31:42;;;;;;;17.15;14.60;;;;;;;0.03;100.00;102847.00;4997105;28;20196;-43
2023/01/21 04:34:08;;;;;;;15.18;13.43;;;;;;;0.11;100.00;102849.88;4998718;28;20230;-44
2023/01/21 04:36:33;;;;;;;18.02;14.70;;;;;;;0.08;100.00;102850.69;5002282;28;20620;-46
2023/01/21 04:38:59;;;;;;;17.20;15.32;;;;;;;-0.19;100.00;102857.56;5000896;28;20431;-46
2023/01/21 04:41:24;;;;;;;16.60;14.13;;;;;;;-0.17;100.00;102866.41;5000867;28;20181;-49
2023/01/21 04:43:50;;;;;;;17.77;14.35;;;;;;;-0.16;100.00;102857.66;4999316;28;20223;-45
2023/01/21 04:46:15;;;;;;;16.33;13.63;;;;;;;-0.09;100.00;102855.34;4996152;28;20208;-43
2023/01/21 04:48:41;;;;;;;16.80;14.35;;;;;;;-0.09;100.00;102865.88;5000602;28;20179;-46
2023/01/21 04:51:06;;;;;;;15.10;13.20;;;;;;;-0.05;100.00;102867.75;4997456;28;20247;-44
2023/01/21 04:53:32;;;;;;;15.82;14.13;;;;;;;-0.04;100.00;102864.31;4999549;28;20586;-44
2023/01/21 04:55:57;;;;;;;16.20;13.60;;;;;;;-0.04;100.00;102859.03;4999364;28;20291;-44
2023/01/21 04:58:23;;;;;;;17.65;15.20;;;;;;;-0.12;100.00;102873.66;4996400;28;20250;-48
2023/01/21 05:00:48;;;;;;;17.10;14.20;;;;;;;-0.36;100.00;102884.13;5002387;28;20259;-43
2023/01/21 05:03:14;;;;;;;16.40;14.10;;;;;;;-0.19;100.00;102878.63;5004479;28;20246;-43
2023/01/21 05:05:40;;;;;;;15.38;13.63;;;;;;;-0.17;100.00;102879.59;5001435;28;20553;-43
2023/01/21 05:08:05;;;;;;;18.05;14.57;;;;;;;-0.25;100.00;102892.44;4997931;28;20182;-44
2023/01/21 05:10:31;;;;;;;15.60;13.07;;;;;;;-0.18;100.00;102890.94;4994970;28;20615;-50
2023/01/21 05:12:57;;;;;;;15.77;14.13;;;;;;;-0.17;100.00;102888.38;4997424;28;20189;-44
2023/01/21 05:15:23;;;;;;;16.02;13.68;;;;;;;-0.36;100.00;102888.50;4997925;28;20284;-42
2023/01/21 05:17:48;;;;;;;19.00;14.48;;;;;;;-0.66;100.00;102894.31;5000564;28;20276;-47
2023/01/21 05:20:14;;;;;;;17.95;14.40;;;;;;;-0.60;100.00;102893.66;4999314;28;20281;-46
2023/01/21 05:22:40;;;;;;;14.93;13.18;;;;;;;-0.62;100.00;102899.75;5006710;28;20557;-46
2023/01/21 05:25:06;;;;;;;15.50;13.30;;;;;;;-0.62;100.00;102894.50;5003749;28;20536;-44
2023/01/21 05:27:31;;;;;;;17.02;12.85;;;;;;;-0.58;100.00;102908.69;5003303;28;20212;-44
2023/01/21 05:29:57;;;;;;;14.90;12.88;;;;;;;-0.64;100.00;102911.06;5000984;28;20288;-45
2023/01/21 05:32:23;;;;;;;14.23;12.35;;;;;;;-0.60;100.00;102910.34;5004569;28;20280;-45
2023/01/21 05:34:48;;;;;;;14.25;12.75;;;;;;;-0.60;100.00;102920.88;5005004;28;20238;-46
2023/01/21 05:37:14;;;;;;;15.85;13.00;;;;;;;-0.56;100.00;102917.53;5002620;28;20196;-44
2023/01/21 05:39:39;;;;;;;16.88;13.00;;;;;;;-0.61;100.00;102934.91;4998334;28;20272;-43
2023/01/21 05:42:05;;;;;;;15.00;12.85;;;;;;;-0.65;100.00;102935.59;4999217;28;20208;-44
2023/01/21 05:44:30;;;;;;;16.75;13.73;;;;;;;-0.80;100.00;102945.50;4998200;28;20280;-42
2023/01/21 05:46:56;;;;;;;14.68;12.80;;;;;;;-0.69;100.00;102937.19;5003923;28;20201;-49
2023/01/21 05:49:21;;;;;;;16.13;14.18;;;;;;;-0.73;100.00;102948.44;5007040;28;20193;-48
2023/01/21 05:51:50;;;;;;;14.93;11.95;;;;;;;-0.79;100.00;102948.16;5004174;28;20218;-46
2023/01/21 05:54:16;;;;;;;16.35;14.50;;;;;;;-0.89;100.00;102952.16;5002165;28;20306;-49
2023/01/21 05:56:41;;;;;;;15.38;13.32;;;;;;;-0.89;100.00;102946.88;4998978;28;20328;-48
2023/01/21 05:59:08;;;;;;;14.20;12.70;;;;;;;-0.80;100.00;102958.66;4995681;28;20281;-47
2023/01/21 06:01:33;;;;;;;17.80;15.38;;;;;;;-0.91;100.00;102952.91;4996482;28;20213;-47
2023/01/21 06:03:59;;;;;;;16.40;12.90;;;;;;;-0.81;100.00;102964.72;4999607;28;20886;-49
2023/01/21 06:06:24;;;;;;;15.57;13.82;;;;;;;-0.83;100.00;102972.56;4996373;28;20208;-49
2023/01/21 06:08:49;;;;;;;14.35;12.48;;;;;;;-0.80;100.00;102966.53;5006145;28;20240;-47
2023/01/21 06:11:15;;;;;;;13.93;12.40;;;;;;;-0.74;100.00;102972.06;5002319;28;20193;-49
2023/01/21 06:13:40;;;;;;;15.07;12.75;;;;;;;-0.74;100.00;102985.22;5002578;28;20181;-48
2023/01/21 06:16:06;;;;;;;16.25;13.73;;;;;;;-0.92;100.00;102983.59;5002787;28;20216;-46
2023/01/21 06:18:32;;;;;;;13.85;12.45;;;;;;;-0.87;100.00;102991.69;5001305;28;20189;-46
2023/01/21 06:20:59;;;;;;;18.50;14.65;;;;;;;-1.05;100.00;102984.78;5001180;28;20193;-48
2023/01/21 06:23:24;;;;;;;17.52;14.05;;;;;;;-1.00;100.00;102990.25;5000639;28;20192;-47
2023/01/21 06:25:50;;;;;;;16.30;13.88;;;;;;;-0.96;100.00;102994.81;5001094;28;20201;-49
2023/01/21 06:28:15;;;;;;;17.30;14.15;;;;;;;-0.97;100.00;102987.75;4999995;28;20223;-48
2023/01/21 06:30:41;;;;;;;17.23;14.55;;;;;;;-0.99;100.00;102992.03;4997758;28;20635;-48
2023/01/21 06:33:06;;;;;;;16.75;14.45;;;;;;;-0.92;100.00;103003.72;5001596;28;20172;-48
2023/01/21 06:35:32;;;;;;;19.67;14.57;;;;;;;-0.92;100.00;103011.63;4999720;28;20375;-47
2023/01/21 06:37:57;;;;;;;16.50;13.20;;;;;;;-0.87;100.00;103013.63;4998660;28;20259;-49
2023/01/21 06:40:23;;;;;;;16.58;14.27;;;;;;;-0.90;100.00;103015.22;5000370;28;20267;-47
2023/01/21 06:42:49;;;;;;;15.75;13.23;;;;;;;-0.81;100.00;103020.88;4996538;28;20599;-49
2023/01/21 06:45:15;;;;;;;19.20;14.32;;;;;;;-0.84;100.00;103021.66;4993831;28;20224;-49
2023/01/21 06:47:42;;;;;;;18.85;14.43;;;;;;;-0.90;100.00;103026.63;5002503;28;20236;-48
2023/01/21 06:50:13;;;;;;;16.80;14.30;;;;;;;-0.82;100.00;103032.25;4999610;28;20169;-48
2023/01/21 06:52:42;;;;;;;19.90;14.73;;;;;;;-0.92;100.00;103038.84;4995585;28;20542;-48
2023/01/21 06:55:08;;;;;;;16.67;13.75;;;;;;;-0.87;100.00;103033.81;5007903;28;20712;-48
2023/01/21 06:57:34;;;;;;;20.95;14.40;;;;;;;-0.89;100.00;103040.72;5001677;28;20586;-47
2023/01/21 06:59:59;;;;;;;16.58;12.75;;;;;;;-0.82;100.00;103042.78;5000565;28;20197;-50
2023/01/21 07:02:25;;;;;;;17.48;14.90;;;;;;;-0.92;100.00;103044.13;5000627;28;20386;-49
2023/01/21 07:04:51;;;;;;;17.42;13.98;;;;;;;-0.83;100.00;103056.78;5000453;28;20553;-48
2023/01/21 07:07:17;;;;;;;16.85;13.85;;;;;;;-0.86;100.00;103051.38;5002065;28;20691;-47
2023/01/21 07:09:42;;;;;;;18.25;14.32;;;;;;;-0.87;100.00;103060.13;4997586;28;20173;-47
2023/01/21 07:12:08;;;;;;;19.38;14.95;;;;;;;-0.97;100.00;103060.53;5000458;28;20186;-48
2023/01/21 07:14:33;;;;;;;18.00;13.65;;;;;;;-0.97;100.00;103058.78;5001778;28;20176;-49
2023/01/21 07:16:59;;;;;;;18.90;14.15;;;;;;;-1.00;100.00;103073.56;4997332;28;20201;-49
2023/01/21 07:19:26;;;;;;;19.90;15.82;;;;;;;-1.05;100.00;103076.88;5000390;28;20191;-49
2023/01/21 07:21:54;;;;;;;20.90;15.88;;;;;;;-1.04;100.00;103077.75;4983410;28;20212;-48
2023/01/21 07:24:21;;;;;;;16.90;14.05;;;;;;;-0.95;100.00;103074.66;4981400;28;20192;-47
2023/01/21 07:26:47;;;;;;;31.13;20.13;;;;;;;-0.75;100.00;103086.06;4998254;28;20193;-48
2023/01/21 07:29:12;;;;;;;25.70;17.50;;;;;;;-0.74;100.00;103086.16;4996606;28;20280;-48
2023/01/21 07:31:38;;;;;;;22.70;15.80;;;;;;;-0.73;100.00;103087.94;4993061;28;20627;-49
2023/01/21 07:34:03;;;;;;;20.50;15.07;;;;;;;-0.76;100.00;103085.16;4997641;28;20561;-47
2023/01/21 07:36:29;;;;;;;18.58;13.65;;;;;;;-0.73;100.00;103094.94;4997466;28;20224;-46
2023/01/21 07:38:55;;;;;;;20.27;14.90;;;;;;;-0.76;100.00;103100.97;4998081;28;20181;-48
2023/01/21 07:41:20;;;;;;;20.30;15.65;;;;;;;-0.73;100.00;103100.19;5001408;28;20332;-49
2023/01/21 07:43:49;;;;;;;22.70;16.65;;;;;;;-0.83;100.00;103109.44;4999036;28;20177;-47
2023/01/21 07:46:17;;;;;;;24.05;16.95;;;;;;;-0.88;100.00;103116.19;5001884;28;20228;-48
2023/01/21 07:48:42;;;;;;;24.45;16.38;;;;;;;-0.87;100.00;103116.28;4998259;28;20211;-49
2023/01/21 07:51:08;;;;;;;20.83;15.13;;;;;;;-0.85;100.00;103119.88;4999107;28;20172;-47
2023/01/21 07:53:33;;;;;;;20.67;15.23;;;;;;;-0.80;100.00;103125.34;4998641;28;20242;-48
2023/01/21 07:56:06;;;;;;;21.40;16.30;;;;;;;-0.84;100.00;103133.94;4999429;28;20707;-49
2023/01/21 07:58:32;;;;;;;21.90;15.15;;;;;;;-0.81;100.00;103133.16;5001499;28;20196;-49
2023/01/21 08:00:57;;;;;;;21.35;15.20;;;;;;;-0.84;100.00;103128.66;5001126;28;20184;-47
2023/01/21 08:03:24;;;;;;;22.02;16.50;;;;;;;-0.87;100.00;103125.91;4996738;28;20177;-48
2023/01/21 08:05:50;;;;;;;19.98;14.93;;;;;;;-0.84;100.00;103140.09;5002154;28;20204;-48
2023/01/21 08:08:19;;;;;;;20.45;15.32;;;;;;;-0.81;100.00;103136.69;5001175;28;20200;-46
2023/01/21 08:10:50;;;;;;;22.85;16.77;;;;;;;-0.80;100.00;103127.97;4994465;28;20656;-47
2023/01/21 08:13:15;;;;;;;23.45;15.73;;;;;;;-0.80;100.00;103124.44;4997820;28;20555;-49
2023/01/21 08:15:41;;;;;;;21.20;15.60;;;;;;;-0.80;100.00;103130.59;4994631;28;20217;-48
2023/01/21 08:18:06;;;;;;;23.40;17.05;;;;;;;-0.88;100.00;103132.88;4991025;28;20656;-49
2023/01/21 08:20:32;;;;;;;25.30;16.70;;;;;;;-0.96;100.00;103136.91;4997099;28;20189;-48
2023/01/21 08:23:00;;;;;;;24.50;17.90;;;;;;;-0.95;100.00;103146.59;4998949;28;20199;-49
2023/01/21 08:25:26;;;;;;;21.38;15.55;;;;;;;-0.89;100.00;103135.47;4995154;28;20656;-48
2023/01/21 08:27:51;;;;;;;22.98;16.33;;;;;;;-0.81;100.00;103149.84;5003009;28;20191;-50
2023/01/21 08:30:17;;;;;;;23.60;16.80;;;;;;;-0.75;100.00;103143.97;4999321;28;20560;-48
2023/01/21 08:32:44;;;;;;;24.95;17.08;;;;;;;-0.71;100.00;103151.19;5004517;28;20679;-48
2023/01/21 08:35:09;;;;;;;28.05;20.25;;;;;;;-0.74;100.00;103151.94;4998547;28;20196;-48
2023/01/21 08:37:35;;;;;;;26.63;17.38;;;;;;;-0.72;100.00;103160.81;4995242;28;20707;-50
2023/01/21 08:40:01;;;;;;;31.00;19.10;;;;;;;-0.60;100.00;103154.31;4998513;28;20189;-47
2023/01/21 08:42:27;;;;;;;25.70;17.48;;;;;;;-0.44;100.00;103160.34;4997360;28;20181;-49
2023/01/21 08:44:53;;;;;;;27.83;19.20;;;;;;;-0.27;100.00;103162.78;5000658;28;20722;-42
2023/01/21 08:47:19;;;;;;;28.20;20.05;;;;;;;-0.06;100.00;103168.13;5004316;28;20205;-45
2023/01/21 08:49:44;;;;;;;31.27;20.45;;;;;;;-0.15;100.00;103168.63;4995997;28;20184;-44
2023/01/21 08:52:10;;;;;;;31.40;20.27;;;;;;;0.13;100.00;103169.78;5001449;28;20628;-42
2023/01/21 08:54:35;;;;;;;30.15;19.70;;;;;;;0.31;100.00;103178.47;5002938;28;20176;-44
2023/01/21 08:57:01;;;;;;;32.92;21.08;;;;;;;0.59;100.00;103179.59;5003738;28;20741;-43
2023/01/21 08:59:28;;;;;;;31.20;20.20;;;;;;;0.62;100.00;103185.03;5009844;28;20197;-43
2023/01/21 09:01:55;;;;;;;31.95;21.85;;;;;;;0.79;100.00;103180.44;4997900;28;20189;-44
2023/01/21 09:04:22;;;;;;;31.92;20.95;;;;;;;0.80;100.00;103191.03;5002371;28;20192;-48
2023/01/21 09:06:48;;;;;;;28.88;20.45;;;;;;;0.85;100.00;103187.69;4997362;28;20212;-45
2023/01/21 09:09:13;;;;;;;26.80;19.05;;;;;;;0.99;100.00;103190.03;4997704;28;20193;-46
2023/01/21 09:11:40;;;;;;;26.80;17.77;;;;;;;1.03;100.00;103199.88;4998156;28;20181;-48
2023/01/21 09:14:06;;;;;;;25.73;18.40;;;;;;;1.09;100.00;103190.38;5002300;28;20239;-43
2023/01/21 09:16:31;;;;;;;26.85;18.58;;;;;;;1.29;100.00;103196.41;5003020;28;20204;-44
2023/01/21 09:18:58;;;;;;;26.30;19.23;;;;;;;1.27;100.00;103201.66;5004206;28;20208;-47
2023/01/21 09:21:24;;;;;;;26.08;18.90;;;;;;;1.35;100.00;103207.22;5003538;28;20196;-44
2023/01/21 09:23:49;;;;;;;25.75;18.98;;;;;;;1.44;100.00;103204.94;5008268;28;20224;-47
2023/01/21 09:26:18;;;;;;;31.08;19.00;;;;;;;1.55;100.00;103218.53;5003058;28;20217;-45
2023/01/21 09:28:46;;;;;;;28.10;19.17;;;;;;;1.60;100.00;103220.53;5009500;28;20697;-50
2023/01/21 09:31:15;;;;;;;22.98;17.38;;;;;;;1.65;100.00;103221.59;4998141;28;20186;-46
2023/01/21 09:33:46;;;;;;;21.38;16.58;;;;;;;1.75;100.00;103229.84;5002611;28;20209;-45
2023/01/21 09:36:17;;;;;;;26.55;16.58;;;;;;;1.79;100.00;103223.84;5003954;28;20649;-45
2023/01/21 09:38:45;;;;;;;20.17;14.60;;;;;;;1.91;100.00;103233.97;4999849;28;20342;-45
2023/01/21 09:41:22;;;;;;;21.13;15.40;;;;;;;1.91;100.00;103236.63;5005374;28;20283;-45
2023/01/21 09:43:57;;;;;;;18.17;13.30;;;;;;;2.04;100.00;103249.44;4998906;28;20554;-46
2023/01/21 09:46:33;;;;;;;17.08;12.60;;;;;;;1.98;100.00;103247.44;4999399;28;20239;-46
2023/01/21 09:49:01;;;;;;;17.55;12.23;;;;;;;1.99;100.00;103235.13;5000512;28;20200;-46
2023/01/21 09:51:47;;;;;;;16.63;10.98;;;;;;;2.01;100.00;103242.28;4993887;28;20185;-45
2023/01/21 09:54:38;;;;;;;14.30;10.35;;;;;;;2.02;100.00;103246.72;5002939;28;20212;-47
2023/01/21 09:57:29;;;;;;;14.27;10.55;;;;;;;2.04;100.00;103254.72;4999806;28;20711;-48
2023/01/21 10:00:33;;;;;;;12.63;10.15;;;;;;;2.13;100.00;103248.88;4998984;28;20202;-46
2023/01/21 10:02:59;;;;;;;11.48;9.65;;;;;;;2.18;100.00;103260.50;4993243;28;20204;-46
2023/01/21 10:05:36;;;;;;;15.40;11.13;;;;;;;2.12;100.00;103247.97;4996474;28;20170;-48
2023/01/21 10:08:34;;;;;;;16.08;10.90;;;;;;;2.14;100.00;103248.91;5002554;28;20180;-46
2023/01/21 10:11:28;;;;;;;15.43;11.80;;;;;;;2.19;100.00;103259.66;5015135;28;20260;-47
2023/01/21 10:14:09;;;;;;;16.13;11.98;;;;;;;2.18;100.00;103249.91;5002592;28;20192;-45
2023/01/21 10:17:04;;;;;;;17.23;12.80;;;;;;;2.19;100.00;103244.69;5002143;28;20220;-46
2023/01/21 10:19:50;;;;;;;15.55;12.52;;;;;;;2.24;100.00;103260.72;5002169;28;20192;-47
2023/01/21 10:22:28;;;;;;;18.67;12.98;;;;;;;2.20;100.00;103253.50;5004626;28;20264;-48
2023/01/21 10:25:03;;;;;;;17.20;13.00;;;;;;;2.25;100.00;103254.56;5002750;28;20231;-48
2023/01/21 10:27:34;;;;;;;18.98;13.50;;;;;;;2.30;100.00;103250.34;5001073;28;20196;-46
2023/01/21 10:30:08;;;;;;;19.00;14.00;;;;;;;2.36;100.00;103237.34;4997459;28;20487;-45
2023/01/21 10:32:38;;;;;;;18.17;13.77;;;;;;;2.37;100.00;103244.41;4998890;28;20254;-46
2023/01/21 10:35:17;;;;;;;21.90;16.20;;;;;;;2.37;100.00;103241.78;5000528;28;20589;-46
2023/01/21 10:38:01;;;;;;;19.27;14.95;;;;;;;2.34;100.00;103251.34;4993986;28;20209;-47
2023/01/21 10:40:45;;;;;;;20.02;15.60;;;;;;;2.33;100.00;103236.34;4999738;28;20199;-45
2023/01/21 10:43:13;;;;;;;19.90;15.15;;;;;;;2.33;100.00;103242.50;4997943;28;20284;-46
2023/01/21 10:45:54;;;;;;;18.67;15.77;;;;;;;2.38;100.00;103240.03;4995283;28;20209;-46
2023/01/21 10:48:37;;;;;;;19.45;15.50;;;;;;;2.39;100.00;103248.03;5003357;28;20297;-46
2023/01/21 10:51:09;;;;;;;18.50;15.25;;;;;;;2.30;100.00;103244.19;4999502;28;20185;-45
2023/01/21 10:53:43;;;;;;;21.08;16.42;;;;;;;2.29;100.00;103245.91;5000632;28;20192;-44
2023/01/21 10:56:28;;;;;;;21.45;15.32;;;;;;;2.40;100.00;103241.88;5002227;28;20222;-46
2023/01/21 10:58:59;;;;;;;19.92;14.18;;;;;;;2.17;100.00;103240.19;4998651;28;20652;-45
2023/01/21 11:01:41;;;;;;;23.40;15.02;;;;;;;2.15;100.00;103231.31;4999664;28;20264;-48
2023/01/21 11:04:17;;;;;;;20.63;15.82;;;;;;;2.25;100.00;103236.06;5001580;28;20199;-47
2023/01/21 11:06:59;;;;;;;21.27;15.10;;;;;;;2.19;100.00;103236.75;5001889;28;20213;-47
2023/01/21 11:09:28;;;;;;;22.83;16.17;;;;;;;2.16;100.00;103235.72;5001282;28;20531;-46
2023/01/21 11:11:54;;;;;;;24.98;15.75;;;;;;;2.14;100.00;103229.50;5000148;28;20831;-46
2023/01/21 11:14:19;;;;;;;23.67;15.80;;;;;;;2.09;100.00;103226.69;5000096;28;20272;-47
2023/01/21 11:16:47;;;;;;;20.65;14.70;;;;;;;2.03;100.00;103226.47;4997712;28;20221;-47
2023/01/21 11:19:15;;;;;;;17.60;14.07;;;;;;;2.12;100.00;103220.59;4995993;28;20193;-46
2023/01/21 11:22:03;;;;;;;21.15;14.15;;;;;;;2.24;100.00;103218.41;4998617;28;20727;-45